Hailesboro, NY (13645)

11:20 AM EST on December 08, 2016 (GMT -0500)
Village of Gouverneur (Barnes St.) | | Change Station

Elev 433 ft 44.34 °N, 75.47 °W | Updated 3 seconds ago

Snow
Snow
37.0 °F
Feels Like 33 °F
N
5.0
Wind Variable Wind from WNW

Today
High -- | Low -- °F
--% Chance of Precip.
Yesterday
High -- | Low -- °F
Precip. -- in
Pressure 29.80 in
Visibility 9.0 miles
Clouds Few 2700 ft
Overcast 3000 ft
Windchill 33 °F
Dew Point 36 °F
Humidity 98%
Rainfall 0.00 in
Snow Depth Not available.
7:25 AM 4:22 PM
Waxing Gibbous, 64% visible
SPECI KGTB 081615Z 23009KT 9SM -SN FEW027 OVC030 00/M03 A2980 RMK AO2A SNB15
Pressure 29.80 in
Visibility 9.0 miles
Clouds Few 2700 ft
Overcast 3000 ft
Windchill 33 °F
Dew Point 36 °F
Humidity 98%
Rainfall 0.00 in
Snow Depth Not available.
7:25 AM 4:22 PM
Waxing Gibbous, 64% visible
SPECI KGTB 081615Z 23009KT 9SM -SN FEW027 OVC030 00/M03 A2980 RMK AO2A SNB15

10-Day Weather Forecast

Almanac

Astronomy

Dec. 08, 2016 Rise Set
Actual Time
Civil Twilight
Nautical Twilight
Astronomical Twilight
Moon
Length of Visible Light
Length of Day
Tomorrow will be .
, % of the Moon is Illuminated

Today's Extremes

State Highs State Lows

Community

WunderPhotos

Upload Photos

1,956,274 photos uploaded!

WunderBlog® & News

Nearby

Air Quality

  Air Quality AQ Index Pollutant
Not available.

Snow Depth

Station Depth Elevation

Earthquake Activity

City Distance Mag. Time & Date
Minimum magnitude displayed is 2.5.

Coastal Water Temperatures

Place Temperature

Stations

Nearby Weather Stations

Station Location Temp. Windchill Dew Point Humidity Wind Precip. Elev Updated Type
                   

Watches & Warnings

There are currently no watches in effect.